sensor_id;sensor_type;location;lat;lon;timestamp;pressure;altitude;pressure_sealevel;temperature;humidity
1480;BME280;732;51.698;4.886;2022-11-11T00:00:00;102950.97;;;11.32;100.00
1480;BME280;732;51.698;4.886;2022-11-11T00:02:49;102929.25;;;11.35;100.00
1480;BME280;732;51.698;4.886;2022-11-11T00:05:36;102996.13;;;11.64;100.00
1480;BME280;732;51.698;4.886;2022-11-11T00:08:23;102950.97;;;11.32;100.00
1480;BME280;732;51.698;4.886;2022-11-11T00:11:12;102986.84;;;11.52;100.00
1480;BME280;732;51.698;4.886;2022-11-11T00:14:00;102982.22;;;11.47;100.00
1480;BME280;732;51.698;4.886;2022-11-11T00:16:48;102970.63;;;11.24;100.00
1480;BME280;732;51.698;4.886;2022-11-11T00:19:52;102923.13;;;11.17;100.00
1480;BME280;732;51.698;4.886;2022-11-11T00:22:56;102991.44;;;11.57;100.00
1480;BME280;732;51.698;4.886;2022-11-11T00:26:01;102892.19;;;10.91;100.00
1480;BME280;732;51.698;4.886;2022-11-11T00:29:11;102984.16;;;11.51;100.00
1480;BME280;732;51.698;4.886;2022-11-11T00:31:58;102942.13;;;11.30;100.00
1480;BME280;732;51.698;4.886;2022-11-11T00:35:03;102861.91;;;10.78;100.00
1480;BME280;732;51.698;4.886;2022-11-11T00:38:09;102989.16;;;11.46;100.00
1480;BME280;732;51.698;4.886;2022-11-11T00:40:56;102950.75;;;11.45;100.00
1480;BME280;732;51.698;4.886;2022-11-11T00:43:45;102942.56;;;11.57;100.00
1480;BME280;732;51.698;4.886;2022-11-11T00:46:34;103008.34;;;11.98;100.00
1480;BME280;732;51.698;4.886;2022-11-11T00:49:39;102778.91;;;10.74;100.00
1480;BME280;732;51.698;4.886;2022-11-11T00:52:46;102814.97;;;10.99;100.00
1480;BME280;732;51.698;4.886;2022-11-11T00:55:33;102865.56;;;11.17;100.00
1480;BME280;732;51.698;4.886;2022-11-11T00:58:21;102898.16;;;11.23;100.00
1480;BME280;732;51.698;4.886;2022-11-11T01:01:09;102994.94;;;11.75;100.00
1480;BME280;732;51.698;4.886;2022-11-11T01:03:59;102956.78;;;11.62;100.00
1480;BME280;732;51.698;4.886;2022-11-11T01:06:45;102941.44;;;11.52;100.00
1480;BME280;732;51.698;4.886;2022-11-11T01:09:33;103001.28;;;11.80;100.00
1480;BME280;732;51.698;4.886;2022-11-11T01:12:20;102817.72;;;10.84;100.00
1480;BME280;732;51.698;4.886;2022-11-11T01:15:08;103018.81;;;11.81;100.00
1480;BME280;732;51.698;4.886;2022-11-11T01:17:55;102971.44;;;11.59;100.00
1480;BME280;732;51.698;4.886;2022-11-11T01:20:44;102968.91;;;11.60;100.00
1480;BME280;732;51.698;4.886;2022-11-11T01:23:34;102959.09;;;11.56;100.00
1480;BME280;732;51.698;4.886;2022-11-11T01:26:26;102936.13;;;11.33;100.00
1480;BME280;732;51.698;4.886;2022-11-11T01:29:16;102966.16;;;11.57;100.00
1480;BME280;732;51.698;4.886;2022-11-11T01:32:03;102823.13;;;10.70;100.00
1480;BME280;732;51.698;4.886;2022-11-11T01:34:50;102864.75;;;11.00;100.00
1480;BME280;732;51.698;4.886;2022-11-11T01:37:38;102910.66;;;11.29;100.00
1480;BME280;732;51.698;4.886;2022-11-11T01:40:25;102977.22;;;11.69;100.00
1480;BME280;732;51.698;4.886;2022-11-11T01:43:21;102964.88;;;11.67;100.00
1480;BME280;732;51.698;4.886;2022-11-11T01:46:26;102928.81;;;11.43;100.00
1480;BME280;732;51.698;4.886;2022-11-11T01:49:22;102808.56;;;10.57;100.00
1480;BME280;732;51.698;4.886;2022-11-11T01:52:15;102936.75;;;11.27;100.00
1480;BME280;732;51.698;4.886;2022-11-11T01:55:08;102786.44;;;10.50;100.00
1480;BME280;732;51.698;4.886;2022-11-11T01:57:59;102809.66;;;10.62;100.00
1480;BME280;732;51.698;4.886;2022-11-11T02:00:48;102871.22;;;11.08;100.00
1480;BME280;732;51.698;4.886;2022-11-11T02:03:39;102960.31;;;11.45;100.00
1480;BME280;732;51.698;4.886;2022-11-11T02:06:27;102983.81;;;11.79;100.00
1480;BME280;732;51.698;4.886;2022-11-11T02:09:14;102936.00;;;11.47;100.00
1480;BME280;732;51.698;4.886;2022-11-11T02:12:07;102938.44;;;11.44;100.00
1480;BME280;732;51.698;4.886;2022-11-11T02:15:12;102984.03;;;11.66;100.00
1480;BME280;732;51.698;4.886;2022-11-11T02:18:00;102980.88;;;11.55;100.00
1480;BME280;732;51.698;4.886;2022-11-11T02:20:47;103001.41;;;11.81;100.00
1480;BME280;732;51.698;4.886;2022-11-11T02:23:38;102998.84;;;11.83;100.00
1480;BME280;732;51.698;4.886;2022-11-11T02:26:31;102982.47;;;11.69;100.00
1480;BME280;732;51.698;4.886;2022-11-11T02:29:21;102924.13;;;11.36;100.00
1480;BME280;732;51.698;4.886;2022-11-11T02:32:09;102962.06;;;11.64;100.00
1480;BME280;732;51.698;4.886;2022-11-11T02:34:56;102850.78;;;11.00;100.00
1480;BME280;732;51.698;4.886;2022-11-11T02:37:47;102930.59;;;11.44;100.00
1480;BME280;732;51.698;4.886;2022-11-11T02:40:38;102916.78;;;11.29;100.00
1480;BME280;732;51.698;4.886;2022-11-11T02:43:48;102941.91;;;11.43;100.00
1480;BME280;732;51.698;4.886;2022-11-11T02:46:36;102980.41;;;11.64;100.00
1480;BME280;732;51.698;4.886;2022-11-11T02:49:26;102842.78;;;10.79;100.00
1480;BME280;732;51.698;4.886;2022-11-11T02:52:13;102905.44;;;11.29;100.00
1480;BME280;732;51.698;4.886;2022-11-11T02:55:01;102878.75;;;11.01;100.00
1480;BME280;732;51.698;4.886;2022-11-11T02:57:48;102825.81;;;10.71;100.00
1480;BME280;732;51.698;4.886;2022-11-11T03:00:37;102881.13;;;10.96;100.00
1480;BME280;732;51.698;4.886;2022-11-11T03:03:24;102732.25;;;10.13;100.00
1480;BME280;732;51.698;4.886;2022-11-11T03:06:12;102815.28;;;10.70;100.00
1480;BME280;732;51.698;4.886;2022-11-11T03:08:59;102950.34;;;11.55;100.00
1480;BME280;732;51.698;4.886;2022-11-11T03:11:46;102957.31;;;11.55;100.00
1480;BME280;732;51.698;4.886;2022-11-11T03:14:33;102909.69;;;11.27;100.00
1480;BME280;732;51.698;4.886;2022-11-11T03:17:22;102898.16;;;11.23;100.00
1480;BME280;732;51.698;4.886;2022-11-11T03:20:27;102953.72;;;11.35;100.00
1480;BME280;732;51.698;4.886;2022-11-11T03:23:32;102894.88;;;10.92;100.00
1480;BME280;732;51.698;4.886;2022-11-11T03:26:19;102953.41;;;11.29;100.00
1480;BME280;732;51.698;4.886;2022-11-11T03:29:06;102956.28;;;11.34;100.00
1480;BME280;732;51.698;4.886;2022-11-11T03:31:53;102823.69;;;10.46;100.00
1480;BME280;732;51.698;4.886;2022-11-11T03:34:42;102958.81;;;11.32;100.00
1480;BME280;732;51.698;4.886;2022-11-11T03:37:29;102872.53;;;10.81;100.00
1480;BME280;732;51.698;4.886;2022-11-11T03:40:34;102963.56;;;11.23;100.00
1480;BME280;732;51.698;4.886;2022-11-11T03:43:23;102909.31;;;11.02;100.00
1480;BME280;732;51.698;4.886;2022-11-11T03:46:12;102826.84;;;10.57;100.00
1480;BME280;732;51.698;4.886;2022-11-11T03:48:59;102958.06;;;11.35;100.00
1480;BME280;732;51.698;4.886;2022-11-11T03:51:47;102877.41;;;10.91;100.00
1480;BME280;732;51.698;4.886;2022-11-11T03:54:35;102777.63;;;10.31;100.00
1480;BME280;732;51.698;4.886;2022-11-11T03:57:22;102954.16;;;11.09;100.00
1480;BME280;732;51.698;4.886;2022-11-11T04:00:20;102957.75;;;11.11;100.00
1480;BME280;732;51.698;4.886;2022-11-11T04:03:10;102947.72;;;11.20;100.00
1480;BME280;732;51.698;4.886;2022-11-11T04:06:15;102925.22;;;10.89;100.00
1480;BME280;732;51.698;4.886;2022-11-11T04:09:21;102950.34;;;11.20;100.00
1480;BME280;732;51.698;4.886;2022-11-11T04:12:26;102985.41;;;11.24;100.00
1480;BME280;732;51.698;4.886;2022-11-11T04:15:14;102989.59;;;11.20;100.00
1480;BME280;732;51.698;4.886;2022-11-11T04:18:18;102921.72;;;11.06;100.00
1480;BME280;732;51.698;4.886;2022-11-11T04:21:30;102994.88;;;11.38;100.00
1480;BME280;732;51.698;4.886;2022-11-11T04:24:30;102954.69;;;11.02;100.00
1480;BME280;732;51.698;4.886;2022-11-11T04:27:35;102909.00;;;10.78;100.00
1480;BME280;732;51.698;4.886;2022-11-11T04:30:24;102946.84;;;11.02;100.00
1480;BME280;732;51.698;4.886;2022-11-11T04:33:14;102811.13;;;10.22;100.00
1480;BME280;732;51.698;4.886;2022-11-11T04:36:01;102966.00;;;11.19;100.00
1480;BME280;732;51.698;4.886;2022-11-11T04:38:48;102775.44;;;10.06;100.00
1480;BME280;732;51.698;4.886;2022-11-11T04:41:54;102807.44;;;10.18;100.00
1480;BME280;732;51.698;4.886;2022-11-11T04:44:58;102831.72;;;10.33;100.00
1480;BME280;732;51.698;4.886;2022-11-11T04:48:05;102786.06;;;10.09;100.00
1480;BME280;732;51.698;4.886;2022-11-11T04:50:52;102877.19;;;10.53;100.00
1480;BME280;732;51.698;4.886;2022-11-11T04:53:39;102948.63;;;10.86;100.00
1480;BME280;732;51.698;4.886;2022-11-11T04:56:26;102960.78;;;11.03;100.00
1480;BME280;732;51.698;4.886;2022-11-11T04:59:33;102915.22;;;10.64;100.00
1480;BME280;732;51.698;4.886;2022-11-11T05:02:19;102969.72;;;11.06;100.00
1480;BME280;732;51.698;4.886;2022-11-11T05:05:25;102899.47;;;10.63;100.00
1480;BME280;732;51.698;4.886;2022-11-11T05:08:12;102934.97;;;10.75;100.00
1480;BME280;732;51.698;4.886;2022-11-11T05:11:17;102985.03;;;10.99;100.00
1480;BME280;732;51.698;4.886;2022-11-11T05:14:08;102937.91;;;10.81;100.00
1480;BME280;732;51.698;4.886;2022-11-11T05:17:14;102951.56;;;10.76;100.00
1480;BME280;732;51.698;4.886;2022-11-11T05:20:21;102940.66;;;10.67;100.00
1480;BME280;732;51.698;4.886;2022-11-11T05:23:34;102978.69;;;10.78;100.00
1480;BME280;732;51.698;4.886;2022-11-11T05:26:35;102995.50;;;10.83;100.00
1480;BME280;732;51.698;4.886;2022-11-11T05:29:22;103001.59;;;10.82;100.00
1480;BME280;732;51.698;4.886;2022-11-11T05:32:09;102992.50;;;10.75;100.00
1480;BME280;732;51.698;4.886;2022-11-11T05:34:58;102844.34;;;9.92;100.00
1480;BME280;732;51.698;4.886;2022-11-11T05:37:45;102775.56;;;9.43;100.00
1480;BME280;732;51.698;4.886;2022-11-11T05:40:55;102984.13;;;10.65;100.00
1480;BME280;732;51.698;4.886;2022-11-11T05:43:42;102760.31;;;9.51;100.00
1480;BME280;732;51.698;4.886;2022-11-11T05:46:29;102970.78;;;10.60;100.00
1480;BME280;732;51.698;4.886;2022-11-11T05:49:17;102774.00;;;9.47;100.00
1480;BME280;732;51.698;4.886;2022-11-11T05:52:06;102741.81;;;9.14;100.00
1480;BME280;732;51.698;4.886;2022-11-11T05:54:53;102981.63;;;10.50;100.00
1480;BME280;732;51.698;4.886;2022-11-11T05:57:41;102974.41;;;10.46;100.00
1480;BME280;732;51.698;4.886;2022-11-11T06:00:27;102769.22;;;9.38;100.00
1480;BME280;732;51.698;4.886;2022-11-11T06:03:14;102828.03;;;9.64;100.00
1480;BME280;732;51.698;4.886;2022-11-11T06:06:02;102861.00;;;9.78;100.00
1480;BME280;732;51.698;4.886;2022-11-11T06:08:50;102809.19;;;9.53;100.00
1480;BME280;732;51.698;4.886;2022-11-11T06:11:37;102953.50;;;10.30;100.00
1480;BME280;732;51.698;4.886;2022-11-11T06:14:24;102983.00;;;10.43;100.00
1480;BME280;732;51.698;4.886;2022-11-11T06:17:11;102912.44;;;10.11;100.00
1480;BME280;732;51.698;4.886;2022-11-11T06:19:58;102967.22;;;10.42;100.00
1480;BME280;732;51.698;4.886;2022-11-11T06:22:45;102821.59;;;9.57;100.00
1480;BME280;732;51.698;4.886;2022-11-11T06:25:43;102979.72;;;10.47;100.00
1480;BME280;732;51.698;4.886;2022-11-11T06:28:49;102942.94;;;9.96;100.00
1480;BME280;732;51.698;4.886;2022-11-11T06:31:37;102989.44;;;10.18;100.00
1480;BME280;732;51.698;4.886;2022-11-11T06:34:24;102738.94;;;8.63;100.00
1480;BME280;732;51.698;4.886;2022-11-11T06:37:12;102973.13;;;10.07;100.00
1480;BME280;732;51.698;4.886;2022-11-11T06:39:59;103009.03;;;10.26;100.00
1480;BME280;732;51.698;4.886;2022-11-11T06:42:47;102956.41;;;10.04;100.00
1480;BME280;732;51.698;4.886;2022-11-11T06:45:35;102720.41;;;8.73;100.00
1480;BME280;732;51.698;4.886;2022-11-11T06:48:24;102987.41;;;10.28;100.00
1480;BME280;732;51.698;4.886;2022-11-11T06:51:12;103005.84;;;10.31;100.00
1480;BME280;732;51.698;4.886;2022-11-11T06:53:59;102924.00;;;9.84;100.00
1480;BME280;732;51.698;4.886;2022-11-11T06:56:47;102903.78;;;9.65;100.00
1480;BME280;732;51.698;4.886;2022-11-11T06:59:36;102893.34;;;9.49;100.00
1480;BME280;732;51.698;4.886;2022-11-11T07:02:23;102970.44;;;9.90;100.00
1480;BME280;732;51.698;4.886;2022-11-11T07:05:10;102964.97;;;10.01;100.00
1480;BME280;732;51.698;4.886;2022-11-11T07:08:01;103028.63;;;10.34;100.00
1480;BME280;732;51.698;4.886;2022-11-11T07:10:48;102950.91;;;9.67;100.00
1480;BME280;732;51.698;4.886;2022-11-11T07:13:35;103038.75;;;10.28;100.00
1480;BME280;732;51.698;4.886;2022-11-11T07:16:24;103021.97;;;10.08;100.00
1480;BME280;732;51.698;4.886;2022-11-11T07:19:11;103045.03;;;10.15;100.00
1480;BME280;732;51.698;4.886;2022-11-11T07:21:59;103044.88;;;10.28;100.00
1480;BME280;732;51.698;4.886;2022-11-11T07:24:46;103051.22;;;10.48;100.00
1480;BME280;732;51.698;4.886;2022-11-11T07:27:36;102833.19;;;9.16;100.00
1480;BME280;732;51.698;4.886;2022-11-11T07:30:24;103050.38;;;10.49;100.00
1480;BME280;732;51.698;4.886;2022-11-11T07:33:12;102760.81;;;8.81;100.00
1480;BME280;732;51.698;4.886;2022-11-11T07:36:00;102960.06;;;10.07;100.00
1480;BME280;732;51.698;4.886;2022-11-11T07:38:47;102777.28;;;9.11;100.00
1480;BME280;732;51.698;4.886;2022-11-11T07:41:34;103081.25;;;10.88;100.00
1480;BME280;732;51.698;4.886;2022-11-11T07:44:22;103085.97;;;10.95;100.00
1480;BME280;732;51.698;4.886;2022-11-11T07:47:09;103074.72;;;10.96;100.00
1480;BME280;732;51.698;4.886;2022-11-11T07:49:57;103087.16;;;11.00;100.00
1480;BME280;732;51.698;4.886;2022-11-11T07:52:52;102915.44;;;10.03;100.00
1480;BME280;732;51.698;4.886;2022-11-11T07:55:39;103103.72;;;11.17;100.00
1480;BME280;732;51.698;4.886;2022-11-11T07:58:26;103041.69;;;10.82;100.00
1480;BME280;732;51.698;4.886;2022-11-11T08:01:13;103087.94;;;11.15;100.00
1480;BME280;732;51.698;4.886;2022-11-11T08:04:00;103054.25;;;11.21;100.00
1480;BME280;732;51.698;4.886;2022-11-11T08:06:49;103116.16;;;11.54;100.00
1480;BME280;732;51.698;4.886;2022-11-11T08:09:36;102784.78;;;9.53;100.00
1480;BME280;732;51.698;4.886;2022-11-11T08:12:24;103061.31;;;11.24;100.00
1480;BME280;732;51.698;4.886;2022-11-11T08:15:28;103097.56;;;11.50;100.00
1480;BME280;732;51.698;4.886;2022-11-11T08:18:15;103122.19;;;11.53;100.00
1480;BME280;732;51.698;4.886;2022-11-11T08:21:03;103118.00;;;11.39;100.00
1480;BME280;732;51.698;4.886;2022-11-11T08:23:53;103105.09;;;11.26;100.00
1480;BME280;732;51.698;4.886;2022-11-11T08:27:00;103107.19;;;11.33;100.00
1480;BME280;732;51.698;4.886;2022-11-11T08:29:47;102957.25;;;10.51;100.00
1480;BME280;732;51.698;4.886;2022-11-11T08:32:35;102988.31;;;10.79;100.00
1480;BME280;732;51.698;4.886;2022-11-11T08:35:22;102973.88;;;10.85;100.00
1480;BME280;732;51.698;4.886;2022-11-11T08:38:10;103111.66;;;11.68;100.00
1480;BME280;732;51.698;4.886;2022-11-11T08:41:01;102965.75;;;10.63;100.00
1480;BME280;732;51.698;4.886;2022-11-11T08:43:51;103122.72;;;11.46;100.00
1480;BME280;732;51.698;4.886;2022-11-11T08:46:39;103125.06;;;11.58;100.00
1480;BME280;732;51.698;4.886;2022-11-11T08:49:27;103128.66;;;11.60;100.00
1480;BME280;732;51.698;4.886;2022-11-11T08:52:14;102865.00;;;10.20;100.00
1480;BME280;732;51.698;4.886;2022-11-11T08:55:01;103088.69;;;11.64;100.00
1480;BME280;732;51.698;4.886;2022-11-11T08:57:57;103075.78;;;11.85;100.00
1480;BME280;732;51.698;4.886;2022-11-11T09:00:44;103108.66;;;11.96;100.00
1480;BME280;732;51.698;4.886;2022-11-11T09:03:35;102876.47;;;10.55;100.00
1480;BME280;732;51.698;4.886;2022-11-11T09:06:22;103093.59;;;11.74;100.00
1480;BME280;732;51.698;4.886;2022-11-11T09:09:09;103131.53;;;11.82;100.00
1480;BME280;732;51.698;4.886;2022-11-11T09:11:59;103018.28;;;11.01;100.00
1480;BME280;732;51.698;4.886;2022-11-11T09:14:48;102955.22;;;10.79;100.00
1480;BME280;732;51.698;4.886;2022-11-11T09:17:35;102952.81;;;11.00;100.00
1480;BME280;732;51.698;4.886;2022-11-11T09:20:23;102991.69;;;11.10;100.00
1480;BME280;732;51.698;4.886;2022-11-11T09:23:11;102921.69;;;10.88;100.00
1480;BME280;732;51.698;4.886;2022-11-11T09:26:00;102887.50;;;10.50;100.00
1480;BME280;732;51.698;4.886;2022-11-11T09:28:49;102894.72;;;10.89;100.00
1480;BME280;732;51.698;4.886;2022-11-11T09:31:38;103170.94;;;12.36;100.00
1480;BME280;732;51.698;4.886;2022-11-11T09:34:30;102899.28;;;11.11;100.00
1480;BME280;732;51.698;4.886;2022-11-11T09:37:18;103061.84;;;12.03;100.00
1480;BME280;732;51.698;4.886;2022-11-11T09:40:08;103090.31;;;12.32;100.00
1480;BME280;732;51.698;4.886;2022-11-11T09:43:08;103115.28;;;12.61;100.00
1480;BME280;732;51.698;4.886;2022-11-11T09:46:13;102929.19;;;11.51;100.00
1480;BME280;732;51.698;4.886;2022-11-11T09:49:45;103047.81;;;12.20;100.00
1480;BME280;732;51.698;4.886;2022-11-11T09:52:39;102936.84;;;11.29;100.00
1480;BME280;732;51.698;4.886;2022-11-11T09:55:35;103146.47;;;12.55;100.00
1480;BME280;732;51.698;4.886;2022-11-11T09:58:25;103161.16;;;12.69;100.00
1480;BME280;732;51.698;4.886;2022-11-11T10:01:19;103163.47;;;12.63;100.00
1480;BME280;732;51.698;4.886;2022-11-11T10:04:24;102901.59;;;11.05;100.00
1480;BME280;732;51.698;4.886;2022-11-11T10:07:24;103046.81;;;11.82;100.00
1480;BME280;732;51.698;4.886;2022-11-11T10:10:20;103131.16;;;12.45;100.00
1480;BME280;732;51.698;4.886;2022-11-11T10:13:14;103154.91;;;12.85;100.00
1480;BME280;732;51.698;4.886;2022-11-11T10:16:08;103165.22;;;12.82;100.00
1480;BME280;732;51.698;4.886;2022-11-11T10:19:21;103046.00;;;12.19;100.00
1480;BME280;732;51.698;4.886;2022-11-11T10:22:20;102865.41;;;11.31;100.00
1480;BME280;732;51.698;4.886;2022-11-11T10:25:19;103178.63;;;13.05;100.00
1480;BME280;732;51.698;4.886;2022-11-11T10:28:14;103109.09;;;12.78;100.00
1480;BME280;732;51.698;4.886;2022-11-11T10:31:05;103164.66;;;13.06;100.00
1480;BME280;732;51.698;4.886;2022-11-11T10:34:02;103163.00;;;13.08;100.00
1480;BME280;732;51.698;4.886;2022-11-11T10:36:54;103165.19;;;13.37;100.00
1480;BME280;732;51.698;4.886;2022-11-11T10:39:57;103005.66;;;12.73;100.00
1480;BME280;732;51.698;4.886;2022-11-11T10:42:46;103170.38;;;13.76;100.00
1480;BME280;732;51.698;4.886;2022-11-11T10:45:40;103121.44;;;13.59;100.00
1480;BME280;732;51.698;4.886;2022-11-11T10:48:40;103017.66;;;12.87;100.00
1480;BME280;732;51.698;4.886;2022-11-11T10:51:35;103110.59;;;13.30;100.00
1480;BME280;732;51.698;4.886;2022-11-11T10:54:30;103104.25;;;13.25;100.00
1480;BME280;732;51.698;4.886;2022-11-11T10:57:30;102917.13;;;12.48;100.00
1480;BME280;732;51.698;4.886;2022-11-11T11:00:21;103160.66;;;13.94;100.00
1480;BME280;732;51.698;4.886;2022-11-11T11:03:14;103158.94;;;13.96;100.00
1480;BME280;732;51.698;4.886;2022-11-11T11:06:09;103161.84;;;14.02;100.00
1480;BME280;732;51.698;4.886;2022-11-11T11:09:05;103140.16;;;14.07;100.00
1480;BME280;732;51.698;4.886;2022-11-11T11:12:00;103144.66;;;14.10;100.00
1480;BME280;732;51.698;4.886;2022-11-11T11:14:55;103153.06;;;14.22;100.00
1480;BME280;732;51.698;4.886;2022-11-11T11:17:52;103108.84;;;13.71;100.00
1480;BME280;732;51.698;4.886;2022-11-11T11:20:55;103129.19;;;14.17;100.00
1480;BME280;732;51.698;4.886;2022-11-11T11:23:44;103091.69;;;14.01;100.00
1480;BME280;732;51.698;4.886;2022-11-11T11:26:43;103110.47;;;14.10;100.00
1480;BME280;732;51.698;4.886;2022-11-11T11:29:34;103130.53;;;14.51;100.00
1480;BME280;732;51.698;4.886;2022-11-11T11:32:28;103141.28;;;14.79;100.00
1480;BME280;732;51.698;4.886;2022-11-11T11:35:31;103101.97;;;14.83;100.00
1480;BME280;732;51.698;4.886;2022-11-11T11:38:19;103106.94;;;14.99;100.00
1480;BME280;732;51.698;4.886;2022-11-11T11:41:07;103132.84;;;15.11;100.00
1480;BME280;732;51.698;4.886;2022-11-11T11:43:53;103099.16;;;15.02;100.00
1480;BME280;732;51.698;4.886;2022-11-11T11:46:43;103122.13;;;15.30;100.00
1480;BME280;732;51.698;4.886;2022-11-11T11:49:46;103085.22;;;15.30;100.00
1480;BME280;732;51.698;4.886;2022-11-11T11:52:47;103064.50;;;15.41;100.00
1480;BME280;732;51.698;4.886;2022-11-11T11:55:37;103090.09;;;15.68;100.00
1480;BME280;732;51.698;4.886;2022-11-11T11:58:36;103041.88;;;15.20;100.00
1480;BME280;732;51.698;4.886;2022-11-11T12:01:37;103104.38;;;15.75;100.00
1480;BME280;732;51.698;4.886;2022-11-11T12:04:59;103105.81;;;15.92;100.00
1480;BME280;732;51.698;4.886;2022-11-11T12:08:05;103081.94;;;15.61;100.00
1480;BME280;732;51.698;4.886;2022-11-11T12:11:00;103103.72;;;15.55;100.00
1480;BME280;732;51.698;4.886;2022-11-11T12:14:09;103107.81;;;15.72;100.00
1480;BME280;732;51.698;4.886;2022-11-11T12:17:09;103070.22;;;15.78;100.00
1480;BME280;732;51.698;4.886;2022-11-11T12:20:15;103073.91;;;16.11;100.00
1480;BME280;732;51.698;4.886;2022-11-11T12:26:34;103058.81;;;16.63;100.00
1480;BME280;732;51.698;4.886;2022-11-11T12:29:37;103084.22;;;16.89;100.00
1480;BME280;732;51.698;4.886;2022-11-11T12:33:05;103052.63;;;16.63;100.00
1480;BME280;732;51.698;4.886;2022-11-11T12:36:13;103063.38;;;16.69;100.00
1480;BME280;732;51.698;4.886;2022-11-11T12:39:10;103077.38;;;16.66;100.00
1480;BME280;732;51.698;4.886;2022-11-11T12:42:13;103056.75;;;16.83;100.00
1480;BME280;732;51.698;4.886;2022-11-11T12:45:16;103065.13;;;16.98;100.00
1480;BME280;732;51.698;4.886;2022-11-11T12:48:17;103078.09;;;17.22;100.00
1480;BME280;732;51.698;4.886;2022-11-11T12:51:19;103071.66;;;17.12;100.00
1480;BME280;732;51.698;4.886;2022-11-11T12:54:18;103037.38;;;16.82;100.00
1480;BME280;732;51.698;4.886;2022-11-11T12:57:15;103017.19;;;16.84;100.00
1480;BME280;732;51.698;4.886;2022-11-11T13:00:11;103046.16;;;17.14;100.00
1480;BME280;732;51.698;4.886;2022-11-11T13:03:20;103057.75;;;17.19;100.00
1480;BME280;732;51.698;4.886;2022-11-11T13:06:35;103053.75;;;17.02;100.00
1480;BME280;732;51.698;4.886;2022-11-11T13:09:44;103048.47;;;17.02;100.00
1480;BME280;732;51.698;4.886;2022-11-11T13:12:37;103028.59;;;16.52;100.00
1480;BME280;732;51.698;4.886;2022-11-11T13:15:27;103011.88;;;16.53;100.00
1480;BME280;732;51.698;4.886;2022-11-11T13:18:18;103039.75;;;16.44;100.00
1480;BME280;732;51.698;4.886;2022-11-11T13:21:09;103037.19;;;16.76;100.00
1480;BME280;732;51.698;4.886;2022-11-11T13:23:58;103035.00;;;16.60;100.00
1480;BME280;732;51.698;4.886;2022-11-11T13:26:48;103048.25;;;16.63;100.00
1480;BME280;732;51.698;4.886;2022-11-11T13:30:02;103011.00;;;16.53;100.00
1480;BME280;732;51.698;4.886;2022-11-11T13:32:55;103045.34;;;16.84;100.00
1480;BME280;732;51.698;4.886;2022-11-11T13:35:50;103054.34;;;16.90;100.00
1480;BME280;732;51.698;4.886;2022-11-11T13:38:45;103015.78;;;16.66;100.00
1480;BME280;732;51.698;4.886;2022-11-11T13:41:37;103045.72;;;16.97;100.00
1480;BME280;732;51.698;4.886;2022-11-11T13:44:31;103053.16;;;16.79;100.00
1480;BME280;732;51.698;4.886;2022-11-11T13:47:22;103044.78;;;16.64;100.00
1480;BME280;732;51.698;4.886;2022-11-11T13:50:19;103036.00;;;16.65;100.00
1480;BME280;732;51.698;4.886;2022-11-11T13:53:15;103054.25;;;16.58;100.00
1480;BME280;732;51.698;4.886;2022-11-11T13:56:19;103049.97;;;16.61;100.00
1480;BME280;732;51.698;4.886;2022-11-11T13:59:20;103046.09;;;16.80;100.00
1480;BME280;732;51.698;4.886;2022-11-11T14:02:28;103046.28;;;16.86;100.00
1480;BME280;732;51.698;4.886;2022-11-11T14:05:21;103045.28;;;16.82;100.00
1480;BME280;732;51.698;4.886;2022-11-11T14:08:09;103027.00;;;16.59;100.00
1480;BME280;732;51.698;4.886;2022-11-11T14:10:58;103029.09;;;16.41;100.00
1480;BME280;732;51.698;4.886;2022-11-11T14:13:46;103013.13;;;16.36;100.00
1480;BME280;732;51.698;4.886;2022-11-11T14:16:59;102990.06;;;16.31;100.00
1480;BME280;732;51.698;4.886;2022-11-11T14:19:50;103002.28;;;16.27;100.00
1480;BME280;732;51.698;4.886;2022-11-11T14:22:37;103026.59;;;16.15;100.00
1480;BME280;732;51.698;4.886;2022-11-11T14:25:26;103009.38;;;16.28;100.00
1480;BME280;732;51.698;4.886;2022-11-11T14:28:25;102982.88;;;16.25;100.00
1480;BME280;732;51.698;4.886;2022-11-11T14:35:23;103006.47;;;16.19;100.00
1480;BME280;732;51.698;4.886;2022-11-11T14:38:40;102984.03;;;15.77;100.00
1480;BME280;732;51.698;4.886;2022-11-11T14:41:47;103030.75;;;16.09;100.00
1480;BME280;732;51.698;4.886;2022-11-11T14:44:42;103005.41;;;15.86;100.00
1480;BME280;732;51.698;4.886;2022-11-11T14:47:35;103020.59;;;15.93;100.00
1480;BME280;732;51.698;4.886;2022-11-11T14:50:43;103036.00;;;16.07;100.00
1480;BME280;732;51.698;4.886;2022-11-11T14:53:36;102973.00;;;15.62;100.00
1480;BME280;732;51.698;4.886;2022-11-11T14:56:24;103028.69;;;15.99;100.00
1480;BME280;732;51.698;4.886;2022-11-11T14:59:22;103023.38;;;15.71;100.00
1480;BME280;732;51.698;4.886;2022-11-11T15:02:24;103015.50;;;15.44;100.00
1480;BME280;732;51.698;4.886;2022-11-11T15:05:16;103035.81;;;15.48;100.00
1480;BME280;732;51.698;4.886;2022-11-11T15:08:16;103036.81;;;15.52;100.00
1480;BME280;732;51.698;4.886;2022-11-11T15:11:23;103032.50;;;15.28;100.00
1480;BME280;732;51.698;4.886;2022-11-11T15:14:24;103051.34;;;15.15;100.00
1480;BME280;732;51.698;4.886;2022-11-11T15:17:24;103046.03;;;15.14;100.00
1480;BME280;732;51.698;4.886;2022-11-11T15:20:30;103048.97;;;15.23;100.00
1480;BME280;732;51.698;4.886;2022-11-11T15:23:29;103032.47;;;15.03;100.00
1480;BME280;732;51.698;4.886;2022-11-11T15:26:22;103053.25;;;15.19;100.00
1480;BME280;732;51.698;4.886;2022-11-11T15:32:56;103037.66;;;14.77;100.00
1480;BME280;732;51.698;4.886;2022-11-11T15:35:54;103022.94;;;14.58;100.00
1480;BME280;732;51.698;4.886;2022-11-11T15:38:45;103058.00;;;14.57;100.00
1480;BME280;732;51.698;4.886;2022-11-11T15:41:35;102975.97;;;13.99;100.00
1480;BME280;732;51.698;4.886;2022-11-11T15:44:27;103059.16;;;14.42;100.00